sensor_id;sensor_type;location;lat;lon;timestamp;P1;durP1;ratioP1;P2;durP2;ratioP2
19151;SDS011;9708;53.114;9.388;2023-08-30T00:01:26;3.20;;;2.00;;
19151;SDS011;9708;53.114;9.388;2023-08-30T00:03:54;3.13;;;2.17;;
19151;SDS011;9708;53.114;9.388;2023-08-30T00:06:21;1.50;;;1.40;;
19151;SDS011;9708;53.114;9.388;2023-08-30T00:08:48;2.00;;;1.47;;
19151;SDS011;9708;53.114;9.388;2023-08-30T00:11:15;1.50;;;1.40;;
19151;SDS011;9708;53.114;9.388;2023-08-30T00:13:42;1.60;;;1.40;;
19151;SDS011;9708;53.114;9.388;2023-08-30T00:16:09;1.47;;;1.37;;
19151;SDS011;9708;53.114;9.388;2023-08-30T00:18:36;1.70;;;1.60;;
19151;SDS011;9708;53.114;9.388;2023-08-30T00:21:04;1.67;;;1.37;;
19151;SDS011;9708;53.114;9.388;2023-08-30T00:23:31;1.63;;;1.53;;
19151;SDS011;9708;53.114;9.388;2023-08-30T00:25:58;1.50;;;1.40;;
19151;SDS011;9708;53.114;9.388;2023-08-30T00:28:25;1.70;;;1.60;;
19151;SDS011;9708;53.114;9.388;2023-08-30T00:30:52;1.40;;;1.30;;
19151;SDS011;9708;53.114;9.388;2023-08-30T00:33:20;1.47;;;1.37;;
19151;SDS011;9708;53.114;9.388;2023-08-30T00:35:46;1.90;;;1.77;;
19151;SDS011;9708;53.114;9.388;2023-08-30T00:38:22;2.23;;;1.73;;
19151;SDS011;9708;53.114;9.388;2023-08-30T00:40:49;3.37;;;2.00;;
19151;SDS011;9708;53.114;9.388;2023-08-30T00:43:16;1.93;;;1.77;;
19151;SDS011;9708;53.114;9.388;2023-08-30T00:45:42;1.87;;;1.63;;
19151;SDS011;9708;53.114;9.388;2023-08-30T00:48:09;2.83;;;1.50;;
19151;SDS011;9708;53.114;9.388;2023-08-30T00:50:37;2.03;;;1.77;;
19151;SDS011;9708;53.114;9.388;2023-08-30T00:53:04;3.23;;;2.07;;
19151;SDS011;9708;53.114;9.388;2023-08-30T00:55:33;1.80;;;1.70;;
19151;SDS011;9708;53.114;9.388;2023-08-30T00:58:01;1.60;;;1.50;;
19151;SDS011;9708;53.114;9.388;2023-08-30T01:00:28;5.37;;;1.80;;
19151;SDS011;9708;53.114;9.388;2023-08-30T01:02:56;2.17;;;1.77;;
19151;SDS011;9708;53.114;9.388;2023-08-30T01:05:23;1.33;;;1.23;;
19151;SDS011;9708;53.114;9.388;2023-08-30T01:07:50;2.53;;;1.93;;
19151;SDS011;9708;53.114;9.388;2023-08-30T01:10:17;1.77;;;1.67;;
19151;SDS011;9708;53.114;9.388;2023-08-30T01:12:49;2.67;;;1.90;;
19151;SDS011;9708;53.114;9.388;2023-08-30T01:15:25;1.80;;;1.70;;
19151;SDS011;9708;53.114;9.388;2023-08-30T01:17:53;1.60;;;1.50;;
19151;SDS011;9708;53.114;9.388;2023-08-30T01:20:22;2.63;;;1.80;;
19151;SDS011;9708;53.114;9.388;2023-08-30T01:22:54;4.33;;;2.00;;
19151;SDS011;9708;53.114;9.388;2023-08-30T01:25:30;1.70;;;1.60;;
19151;SDS011;9708;53.114;9.388;2023-08-30T01:28:05;1.53;;;1.43;;
19151;SDS011;9708;53.114;9.388;2023-08-30T01:30:32;2.70;;;1.80;;
19151;SDS011;9708;53.114;9.388;2023-08-30T01:33:02;3.67;;;2.03;;
19151;SDS011;9708;53.114;9.388;2023-08-30T01:35:30;2.73;;;1.90;;
19151;SDS011;9708;53.114;9.388;2023-08-30T01:38:01;3.27;;;2.13;;
19151;SDS011;9708;53.114;9.388;2023-08-30T01:40:30;2.00;;;1.80;;
19151;SDS011;9708;53.114;9.388;2023-08-30T01:43:04;3.03;;;2.37;;
19151;SDS011;9708;53.114;9.388;2023-08-30T01:45:33;4.10;;;2.37;;
19151;SDS011;9708;53.114;9.388;2023-08-30T01:48:01;3.93;;;2.73;;
19151;SDS011;9708;53.114;9.388;2023-08-30T01:50:30;2.33;;;1.90;;
19151;SDS011;9708;53.114;9.388;2023-08-30T01:52:58;3.23;;;2.27;;
19151;SDS011;9708;53.114;9.388;2023-08-30T01:55:26;2.27;;;2.03;;
19151;SDS011;9708;53.114;9.388;2023-08-30T01:57:54;2.30;;;2.00;;
19151;SDS011;9708;53.114;9.388;2023-08-30T02:00:24;4.10;;;1.83;;
19151;SDS011;9708;53.114;9.388;2023-08-30T02:02:51;2.93;;;2.43;;
19151;SDS011;9708;53.114;9.388;2023-08-30T02:05:18;3.50;;;2.40;;
19151;SDS011;9708;53.114;9.388;2023-08-30T02:07:47;3.13;;;2.33;;
19151;SDS011;9708;53.114;9.388;2023-08-30T02:10:21;2.93;;;2.20;;
19151;SDS011;9708;53.114;9.388;2023-08-30T02:12:52;2.63;;;2.10;;
19151;SDS011;9708;53.114;9.388;2023-08-30T02:15:20;1.83;;;1.73;;
19151;SDS011;9708;53.114;9.388;2023-08-30T02:17:50;2.43;;;2.13;;
19151;SDS011;9708;53.114;9.388;2023-08-30T02:20:17;1.97;;;1.70;;
19151;SDS011;9708;53.114;9.388;2023-08-30T02:22:44;2.87;;;2.13;;
19151;SDS011;9708;53.114;9.388;2023-08-30T02:25:11;2.60;;;1.80;;
19151;SDS011;9708;53.114;9.388;2023-08-30T02:27:38;2.90;;;2.43;;
19151;SDS011;9708;53.114;9.388;2023-08-30T02:30:05;2.60;;;2.17;;
19151;SDS011;9708;53.114;9.388;2023-08-30T02:32:33;2.73;;;1.97;;
19151;SDS011;9708;53.114;9.388;2023-08-30T02:35:01;2.43;;;1.87;;
19151;SDS011;9708;53.114;9.388;2023-08-30T02:37:28;2.27;;;2.07;;
19151;SDS011;9708;53.114;9.388;2023-08-30T02:39:55;2.27;;;2.07;;
19151;SDS011;9708;53.114;9.388;2023-08-30T02:42:22;2.77;;;1.77;;
19151;SDS011;9708;53.114;9.388;2023-08-30T02:44:49;2.77;;;2.30;;
19151;SDS011;9708;53.114;9.388;2023-08-30T02:47:16;2.63;;;2.40;;
19151;SDS011;9708;53.114;9.388;2023-08-30T02:49:43;2.63;;;2.20;;
19151;SDS011;9708;53.114;9.388;2023-08-30T02:52:11;2.70;;;1.73;;
19151;SDS011;9708;53.114;9.388;2023-08-30T02:54:38;2.43;;;1.83;;
19151;SDS011;9708;53.114;9.388;2023-08-30T02:57:05;1.97;;;1.60;;
19151;SDS011;9708;53.114;9.388;2023-08-30T02:59:32;1.80;;;1.70;;
19151;SDS011;9708;53.114;9.388;2023-08-30T03:01:58;1.77;;;1.60;;
19151;SDS011;9708;53.114;9.388;2023-08-30T03:04:25;2.07;;;1.73;;
19151;SDS011;9708;53.114;9.388;2023-08-30T03:06:53;1.63;;;1.43;;
19151;SDS011;9708;53.114;9.388;2023-08-30T03:09:21;2.80;;;2.13;;
19151;SDS011;9708;53.114;9.388;2023-08-30T03:11:48;1.67;;;1.57;;
19151;SDS011;9708;53.114;9.388;2023-08-30T03:14:15;2.17;;;1.87;;
19151;SDS011;9708;53.114;9.388;2023-08-30T03:16:41;1.80;;;1.70;;
19151;SDS011;9708;53.114;9.388;2023-08-30T03:19:10;2.10;;;1.90;;
19151;SDS011;9708;53.114;9.388;2023-08-30T03:21:36;1.57;;;1.40;;
19151;SDS011;9708;53.114;9.388;2023-08-30T03:24:04;3.87;;;2.07;;
19151;SDS011;9708;53.114;9.388;2023-08-30T03:26:32;1.90;;;1.80;;
19151;SDS011;9708;53.114;9.388;2023-08-30T03:28:59;1.73;;;1.63;;
19151;SDS011;9708;53.114;9.388;2023-08-30T03:31:25;2.23;;;2.03;;
19151;SDS011;9708;53.114;9.388;2023-08-30T03:33:52;1.93;;;1.67;;
19151;SDS011;9708;53.114;9.388;2023-08-30T03:36:19;2.57;;;2.00;;
19151;SDS011;9708;53.114;9.388;2023-08-30T03:38:46;4.20;;;1.80;;
19151;SDS011;9708;53.114;9.388;2023-08-30T03:41:13;2.60;;;1.97;;
19151;SDS011;9708;53.114;9.388;2023-08-30T03:43:41;2.60;;;2.40;;
19151;SDS011;9708;53.114;9.388;2023-08-30T03:46:08;2.30;;;1.80;;
19151;SDS011;9708;53.114;9.388;2023-08-30T03:48:36;3.23;;;2.47;;
19151;SDS011;9708;53.114;9.388;2023-08-30T03:51:03;3.47;;;2.50;;
19151;SDS011;9708;53.114;9.388;2023-08-30T03:53:30;4.53;;;3.10;;
19151;SDS011;9708;53.114;9.388;2023-08-30T03:55:57;4.97;;;3.63;;
19151;SDS011;9708;53.114;9.388;2023-08-30T03:58:24;5.20;;;3.87;;
19151;SDS011;9708;53.114;9.388;2023-08-30T04:00:52;6.60;;;4.00;;
19151;SDS011;9708;53.114;9.388;2023-08-30T04:03:19;6.37;;;3.67;;
19151;SDS011;9708;53.114;9.388;2023-08-30T04:05:46;3.23;;;2.93;;
19151;SDS011;9708;53.114;9.388;2023-08-30T04:08:13;5.90;;;3.77;;
19151;SDS011;9708;53.114;9.388;2023-08-30T04:10:40;4.13;;;3.63;;
19151;SDS011;9708;53.114;9.388;2023-08-30T04:13:08;6.37;;;4.17;;
19151;SDS011;9708;53.114;9.388;2023-08-30T04:15:35;4.30;;;3.47;;
19151;SDS011;9708;53.114;9.388;2023-08-30T04:18:05;5.43;;;3.67;;
19151;SDS011;9708;53.114;9.388;2023-08-30T04:20:32;5.27;;;3.83;;
19151;SDS011;9708;53.114;9.388;2023-08-30T04:23:00;4.50;;;3.47;;
19151;SDS011;9708;53.114;9.388;2023-08-30T04:25:27;3.63;;;3.03;;
19151;SDS011;9708;53.114;9.388;2023-08-30T04:27:54;3.97;;;3.23;;
19151;SDS011;9708;53.114;9.388;2023-08-30T04:30:21;3.33;;;2.90;;
19151;SDS011;9708;53.114;9.388;2023-08-30T04:32:48;4.23;;;3.23;;
19151;SDS011;9708;53.114;9.388;2023-08-30T04:35:16;6.67;;;3.97;;
19151;SDS011;9708;53.114;9.388;2023-08-30T04:37:43;4.13;;;3.23;;
19151;SDS011;9708;53.114;9.388;2023-08-30T04:40:10;6.00;;;3.77;;
19151;SDS011;9708;53.114;9.388;2023-08-30T04:42:37;3.57;;;2.80;;
19151;SDS011;9708;53.114;9.388;2023-08-30T04:45:06;5.37;;;3.33;;
19151;SDS011;9708;53.114;9.388;2023-08-30T04:47:34;5.17;;;3.40;;
19151;SDS011;9708;53.114;9.388;2023-08-30T04:50:01;4.40;;;3.53;;
19151;SDS011;9708;53.114;9.388;2023-08-30T04:52:30;9.63;;;4.87;;
19151;SDS011;9708;53.114;9.388;2023-08-30T04:54:57;5.93;;;3.87;;
19151;SDS011;9708;53.114;9.388;2023-08-30T04:57:23;6.07;;;4.33;;
19151;SDS011;9708;53.114;9.388;2023-08-30T04:59:50;4.00;;;3.27;;
19151;SDS011;9708;53.114;9.388;2023-08-30T05:02:17;8.10;;;4.37;;
19151;SDS011;9708;53.114;9.388;2023-08-30T05:04:44;5.63;;;4.23;;
19151;SDS011;9708;53.114;9.388;2023-08-30T05:07:10;5.90;;;4.10;;
19151;SDS011;9708;53.114;9.388;2023-08-30T05:09:39;5.87;;;4.73;;
19151;SDS011;9708;53.114;9.388;2023-08-30T05:12:06;8.10;;;5.67;;
19151;SDS011;9708;53.114;9.388;2023-08-30T05:14:33;12.40;;;5.97;;
19151;SDS011;9708;53.114;9.388;2023-08-30T05:17:00;5.53;;;4.83;;
19151;SDS011;9708;53.114;9.388;2023-08-30T05:19:28;5.33;;;4.00;;
19151;SDS011;9708;53.114;9.388;2023-08-30T05:21:55;8.53;;;5.23;;
19151;SDS011;9708;53.114;9.388;2023-08-30T05:24:22;6.60;;;5.17;;
19151;SDS011;9708;53.114;9.388;2023-08-30T05:26:50;8.30;;;4.73;;
19151;SDS011;9708;53.114;9.388;2023-08-30T05:29:17;8.57;;;4.97;;
19151;SDS011;9708;53.114;9.388;2023-08-30T05:31:44;5.70;;;4.30;;
19151;SDS011;9708;53.114;9.388;2023-08-30T05:34:11;7.97;;;5.40;;
19151;SDS011;9708;53.114;9.388;2023-08-30T05:36:37;6.47;;;4.83;;
19151;SDS011;9708;53.114;9.388;2023-08-30T05:39:05;7.27;;;4.77;;
19151;SDS011;9708;53.114;9.388;2023-08-30T05:41:32;7.43;;;5.30;;
19151;SDS011;9708;53.114;9.388;2023-08-30T05:44:00;6.37;;;4.60;;
19151;SDS011;9708;53.114;9.388;2023-08-30T05:46:27;6.77;;;4.43;;
19151;SDS011;9708;53.114;9.388;2023-08-30T05:48:54;7.30;;;5.33;;
19151;SDS011;9708;53.114;9.388;2023-08-30T05:51:21;8.03;;;4.80;;
19151;SDS011;9708;53.114;9.388;2023-08-30T05:53:48;11.67;;;6.13;;
19151;SDS011;9708;53.114;9.388;2023-08-30T05:56:14;6.17;;;4.60;;
19151;SDS011;9708;53.114;9.388;2023-08-30T05:58:42;9.30;;;5.63;;
19151;SDS011;9708;53.114;9.388;2023-08-30T06:01:10;8.40;;;6.13;;
19151;SDS011;9708;53.114;9.388;2023-08-30T06:03:37;9.07;;;6.30;;
19151;SDS011;9708;53.114;9.388;2023-08-30T06:06:04;8.13;;;5.20;;
19151;SDS011;9708;53.114;9.388;2023-08-30T06:08:31;9.32;;;5.85;;
19151;SDS011;9708;53.114;9.388;2023-08-30T06:10:58;7.78;;;4.72;;
19151;SDS011;9708;53.114;9.388;2023-08-30T06:13:25;8.63;;;5.63;;
19151;SDS011;9708;53.114;9.388;2023-08-30T06:15:52;6.95;;;4.85;;
19151;SDS011;9708;53.114;9.388;2023-08-30T06:18:20;10.30;;;6.27;;
19151;SDS011;9708;53.114;9.388;2023-08-30T06:20:46;9.27;;;6.07;;
19151;SDS011;9708;53.114;9.388;2023-08-30T06:23:14;9.63;;;5.47;;
19151;SDS011;9708;53.114;9.388;2023-08-30T06:25:41;8.10;;;5.00;;
19151;SDS011;9708;53.114;9.388;2023-08-30T06:28:08;5.55;;;4.63;;
19151;SDS011;9708;53.114;9.388;2023-08-30T06:30:35;8.52;;;5.22;;
19151;SDS011;9708;53.114;9.388;2023-08-30T06:33:03;7.63;;;5.45;;
19151;SDS011;9708;53.114;9.388;2023-08-30T06:35:31;9.73;;;5.82;;
19151;SDS011;9708;53.114;9.388;2023-08-30T06:37:58;8.15;;;6.03;;
19151;SDS011;9708;53.114;9.388;2023-08-30T06:40:25;9.63;;;6.55;;
19151;SDS011;9708;53.114;9.388;2023-08-30T06:42:52;6.60;;;5.55;;
19151;SDS011;9708;53.114;9.388;2023-08-30T06:45:18;8.93;;;6.50;;
19151;SDS011;9708;53.114;9.388;2023-08-30T06:47:45;11.27;;;5.70;;
19151;SDS011;9708;53.114;9.388;2023-08-30T06:50:14;14.82;;;7.85;;
19151;SDS011;9708;53.114;9.388;2023-08-30T06:52:42;7.43;;;5.30;;
19151;SDS011;9708;53.114;9.388;2023-08-30T06:55:09;11.15;;;6.72;;
19151;SDS011;9708;53.114;9.388;2023-08-30T06:57:36;12.30;;;5.82;;
19151;SDS011;9708;53.114;9.388;2023-08-30T07:00:03;10.45;;;5.47;;
19151;SDS011;9708;53.114;9.388;2023-08-30T07:02:32;24.27;;;10.75;;
19151;SDS011;9708;53.114;9.388;2023-08-30T07:04:59;8.20;;;5.40;;
19151;SDS011;9708;53.114;9.388;2023-08-30T07:07:26;7.28;;;5.45;;
19151;SDS011;9708;53.114;9.388;2023-08-30T07:09:55;7.70;;;5.35;;
19151;SDS011;9708;53.114;9.388;2023-08-30T07:12:21;11.43;;;6.45;;
19151;SDS011;9708;53.114;9.388;2023-08-30T07:14:48;10.23;;;6.07;;
19151;SDS011;9708;53.114;9.388;2023-08-30T07:17:15;8.25;;;5.47;;
19151;SDS011;9708;53.114;9.388;2023-08-30T07:19:42;8.55;;;5.40;;
19151;SDS011;9708;53.114;9.388;2023-08-30T07:22:08;8.15;;;6.20;;
19151;SDS011;9708;53.114;9.388;2023-08-30T07:24:35;10.90;;;5.88;;
19151;SDS011;9708;53.114;9.388;2023-08-30T07:27:04;7.85;;;5.30;;
19151;SDS011;9708;53.114;9.388;2023-08-30T07:29:32;11.48;;;6.47;;
19151;SDS011;9708;53.114;9.388;2023-08-30T07:31:59;9.32;;;6.00;;
19151;SDS011;9708;53.114;9.388;2023-08-30T07:34:25;8.10;;;5.18;;
19151;SDS011;9708;53.114;9.388;2023-08-30T07:36:53;8.25;;;5.07;;
19151;SDS011;9708;53.114;9.388;2023-08-30T07:39:20;8.00;;;4.93;;
19151;SDS011;9708;53.114;9.388;2023-08-30T07:41:47;6.18;;;4.63;;
19151;SDS011;9708;53.114;9.388;2023-08-30T07:44:15;6.72;;;5.00;;
19151;SDS011;9708;53.114;9.388;2023-08-30T07:46:42;8.57;;;5.38;;
19151;SDS011;9708;53.114;9.388;2023-08-30T07:49:08;6.85;;;4.75;;
19151;SDS011;9708;53.114;9.388;2023-08-30T07:51:35;7.53;;;4.22;;
19151;SDS011;9708;53.114;9.388;2023-08-30T07:54:02;8.20;;;4.97;;
19151;SDS011;9708;53.114;9.388;2023-08-30T07:56:29;6.60;;;4.88;;
19151;SDS011;9708;53.114;9.388;2023-08-30T07:58:56;5.95;;;4.53;;
19151;SDS011;9708;53.114;9.388;2023-08-30T08:01:25;9.70;;;5.40;;
19151;SDS011;9708;53.114;9.388;2023-08-30T08:03:51;9.48;;;5.72;;
19151;SDS011;9708;53.114;9.388;2023-08-30T08:06:18;7.55;;;5.07;;
19151;SDS011;9708;53.114;9.388;2023-08-30T08:08:45;7.38;;;5.40;;
19151;SDS011;9708;53.114;9.388;2023-08-30T08:11:12;8.73;;;5.65;;
19151;SDS011;9708;53.114;9.388;2023-08-30T08:13:39;7.32;;;4.53;;
19151;SDS011;9708;53.114;9.388;2023-08-30T08:16:07;6.65;;;4.50;;
19151;SDS011;9708;53.114;9.388;2023-08-30T08:18:35;6.60;;;5.00;;
19151;SDS011;9708;53.114;9.388;2023-08-30T08:21:01;5.80;;;4.82;;
19151;SDS011;9708;53.114;9.388;2023-08-30T08:23:29;5.95;;;4.55;;
19151;SDS011;9708;53.114;9.388;2023-08-30T08:25:58;8.63;;;5.10;;
19151;SDS011;9708;53.114;9.388;2023-08-30T08:28:25;9.60;;;5.32;;
19151;SDS011;9708;53.114;9.388;2023-08-30T08:30:52;8.82;;;5.25;;
19151;SDS011;9708;53.114;9.388;2023-08-30T08:33:19;6.22;;;4.25;;
19151;SDS011;9708;53.114;9.388;2023-08-30T08:35:49;6.35;;;4.60;;
19151;SDS011;9708;53.114;9.388;2023-08-30T08:38:16;4.63;;;3.90;;
19151;SDS011;9708;53.114;9.388;2023-08-30T08:40:43;7.68;;;4.60;;
19151;SDS011;9708;53.114;9.388;2023-08-30T08:43:10;5.10;;;3.90;;
19151;SDS011;9708;53.114;9.388;2023-08-30T08:45:37;7.93;;;4.63;;
19151;SDS011;9708;53.114;9.388;2023-08-30T08:48:05;6.32;;;4.32;;
19151;SDS011;9708;53.114;9.388;2023-08-30T08:50:32;7.90;;;4.50;;
19151;SDS011;9708;53.114;9.388;2023-08-30T08:53:01;7.25;;;3.90;;
19151;SDS011;9708;53.114;9.388;2023-08-30T08:55:28;5.07;;;3.17;;
19151;SDS011;9708;53.114;9.388;2023-08-30T08:57:56;5.43;;;3.28;;
19151;SDS011;9708;53.114;9.388;2023-08-30T09:00:24;8.43;;;4.40;;
19151;SDS011;9708;53.114;9.388;2023-08-30T09:02:52;3.72;;;3.38;;
19151;SDS011;9708;53.114;9.388;2023-08-30T09:05:20;7.03;;;3.72;;
19151;SDS011;9708;53.114;9.388;2023-08-30T09:07:47;3.95;;;3.35;;
19151;SDS011;9708;53.114;9.388;2023-08-30T09:10:19;4.00;;;2.78;;
19151;SDS011;9708;53.114;9.388;2023-08-30T09:12:46;3.60;;;2.35;;
19151;SDS011;9708;53.114;9.388;2023-08-30T09:15:13;3.08;;;2.78;;
19151;SDS011;9708;53.114;9.388;2023-08-30T09:17:41;3.85;;;2.80;;
19151;SDS011;9708;53.114;9.388;2023-08-30T09:20:08;3.40;;;2.55;;
19151;SDS011;9708;53.114;9.388;2023-08-30T09:22:36;3.65;;;2.60;;
19151;SDS011;9708;53.114;9.388;2023-08-30T09:25:04;3.90;;;2.92;;
19151;SDS011;9708;53.114;9.388;2023-08-30T09:27:33;3.70;;;2.78;;
19151;SDS011;9708;53.114;9.388;2023-08-30T09:30:00;4.28;;;3.15;;
19151;SDS011;9708;53.114;9.388;2023-08-30T09:32:29;3.63;;;2.38;;
19151;SDS011;9708;53.114;9.388;2023-08-30T09:34:56;5.70;;;2.63;;
19151;SDS011;9708;53.114;9.388;2023-08-30T09:37:22;14.05;;;6.95;;
19151;SDS011;9708;53.114;9.388;2023-08-30T09:39:51;4.15;;;2.80;;
19151;SDS011;9708;53.114;9.388;2023-08-30T09:42:18;3.80;;;2.53;;
19151;SDS011;9708;53.114;9.388;2023-08-30T09:44:46;5.88;;;2.72;;
19151;SDS011;9708;53.114;9.388;2023-08-30T09:47:13;4.63;;;2.90;;
19151;SDS011;9708;53.114;9.388;2023-08-30T09:49:42;3.38;;;2.40;;
19151;SDS011;9708;53.114;9.388;2023-08-30T09:52:10;4.30;;;3.08;;
19151;SDS011;9708;53.114;9.388;2023-08-30T09:54:40;3.47;;;2.60;;
19151;SDS011;9708;53.114;9.388;2023-08-30T09:57:09;5.43;;;2.42;;
19151;SDS011;9708;53.114;9.388;2023-08-30T09:59:36;3.65;;;2.55;;
19151;SDS011;9708;53.114;9.388;2023-08-30T10:02:06;2.40;;;2.20;;
19151;SDS011;9708;53.114;9.388;2023-08-30T10:04:35;3.78;;;2.90;;
19151;SDS011;9708;53.114;9.388;2023-08-30T10:07:04;3.42;;;2.40;;
19151;SDS011;9708;53.114;9.388;2023-08-30T10:09:33;5.30;;;3.30;;
19151;SDS011;9708;53.114;9.388;2023-08-30T10:12:00;4.68;;;2.38;;
19151;SDS011;9708;53.114;9.388;2023-08-30T10:14:29;2.70;;;2.08;;
19151;SDS011;9708;53.114;9.388;2023-08-30T10:16:57;4.72;;;2.72;;
19151;SDS011;9708;53.114;9.388;2023-08-30T10:19:29;3.88;;;2.10;;
19151;SDS011;9708;53.114;9.388;2023-08-30T10:22:00;3.80;;;2.30;;
19151;SDS011;9708;53.114;9.388;2023-08-30T10:24:28;3.13;;;2.45;;
19151;SDS011;9708;53.114;9.388;2023-08-30T10:26:58;3.30;;;2.40;;
19151;SDS011;9708;53.114;9.388;2023-08-30T10:29:26;2.72;;;2.45;;
19151;SDS011;9708;53.114;9.388;2023-08-30T10:31:54;2.63;;;2.42;;
19151;SDS011;9708;53.114;9.388;2023-08-30T10:34:21;3.92;;;2.70;;
19151;SDS011;9708;53.114;9.388;2023-08-30T10:39:34;3.38;;;2.67;;
19151;SDS011;9708;53.114;9.388;2023-08-30T10:42:07;3.60;;;2.25;;
19151;SDS011;9708;53.114;9.388;2023-08-30T10:44:35;2.97;;;2.38;;
19151;SDS011;9708;53.114;9.388;2023-08-30T10:47:17;5.70;;;2.63;;
19151;SDS011;9708;53.114;9.388;2023-08-30T10:49:46;2.75;;;2.45;;
19151;SDS011;9708;53.114;9.388;2023-08-30T10:52:15;3.03;;;2.20;;
19151;SDS011;9708;53.114;9.388;2023-08-30T10:54:41;4.97;;;2.90;;
19151;SDS011;9708;53.114;9.388;2023-08-30T10:57:13;3.20;;;2.47;;
19151;SDS011;9708;53.114;9.388;2023-08-30T11:00:03;4.63;;;2.88;;
19151;SDS011;9708;53.114;9.388;2023-08-30T11:02:32;3.55;;;2.67;;
19151;SDS011;9708;53.114;9.388;2023-08-30T11:04:59;4.45;;;3.08;;
19151;SDS011;9708;53.114;9.388;2023-08-30T11:07:28;6.32;;;2.78;;
19151;SDS011;9708;53.114;9.388;2023-08-30T11:09:55;5.75;;;2.60;;
19151;SDS011;9708;53.114;9.388;2023-08-30T11:12:22;2.97;;;2.28;;
19151;SDS011;9708;53.114;9.388;2023-08-30T11:14:51;3.90;;;2.83;;
19151;SDS011;9708;53.114;9.388;2023-08-30T11:17:18;3.85;;;2.47;;
19151;SDS011;9708;53.114;9.388;2023-08-30T11:19:45;5.70;;;2.95;;
19151;SDS011;9708;53.114;9.388;2023-08-30T11:22:12;4.28;;;2.13;;
19151;SDS011;9708;53.114;9.388;2023-08-30T11:24:40;3.30;;;2.13;;
19151;SDS011;9708;53.114;9.388;2023-08-30T11:27:07;3.17;;;2.10;;
19151;SDS011;9708;53.114;9.388;2023-08-30T11:29:34;2.28;;;1.55;;
19151;SDS011;9708;53.114;9.388;2023-08-30T11:32:01;2.97;;;1.73;;
19151;SDS011;9708;53.114;9.388;2023-08-30T11:34:27;3.15;;;2.25;;
19151;SDS011;9708;53.114;9.388;2023-08-30T11:36:54;4.70;;;2.30;;
19151;SDS011;9708;53.114;9.388;2023-08-30T11:39:21;2.63;;;2.17;;
19151;SDS011;9708;53.114;9.388;2023-08-30T11:41:50;2.88;;;2.28;;
19151;SDS011;9708;53.114;9.388;2023-08-30T11:44:17;2.67;;;1.92;;
19151;SDS011;9708;53.114;9.388;2023-08-30T11:46:45;3.67;;;2.53;;
19151;SDS011;9708;53.114;9.388;2023-08-30T11:49:12;6.38;;;2.95;;
19151;SDS011;9708;53.114;9.388;2023-08-30T11:51:39;4.85;;;3.10;;
19151;SDS011;9708;53.114;9.388;2023-08-30T11:54:06;2.45;;;2.20;;
19151;SDS011;9708;53.114;9.388;2023-08-30T11:56:33;3.78;;;2.40;;
19151;SDS011;9708;53.114;9.388;2023-08-30T11:59:03;3.90;;;2.40;;
19151;SDS011;9708;53.114;9.388;2023-08-30T12:01:30;2.30;;;1.88;;
19151;SDS011;9708;53.114;9.388;2023-08-30T12:03:58;2.10;;;1.67;;
19151;SDS011;9708;53.114;9.388;2023-08-30T12:06:34;4.57;;;2.17;;
19151;SDS011;9708;53.114;9.388;2023-08-30T12:09:01;3.65;;;2.08;;
19151;SDS011;9708;53.114;9.388;2023-08-30T12:11:31;2.80;;;1.80;;
19151;SDS011;9708;53.114;9.388;2023-08-30T12:14:02;2.75;;;1.75;;
19151;SDS011;9708;53.114;9.388;2023-08-30T12:16:30;1.88;;;1.73;;
19151;SDS011;9708;53.114;9.388;2023-08-30T12:19:06;3.90;;;1.92;;
19151;SDS011;9708;53.114;9.388;2023-08-30T12:21:38;2.30;;;2.00;;
19151;SDS011;9708;53.114;9.388;2023-08-30T12:24:06;8.73;;;3.72;;
19151;SDS011;9708;53.114;9.388;2023-08-30T12:26:33;1.95;;;1.70;;
19151;SDS011;9708;53.114;9.388;2023-08-30T12:29:00;2.67;;;1.80;;
19151;SDS011;9708;53.114;9.388;2023-08-30T12:31:28;3.22;;;2.00;;
19151;SDS011;9708;53.114;9.388;2023-08-30T12:33:56;2.38;;;1.98;;
19151;SDS011;9708;53.114;9.388;2023-08-30T12:36:23;1.90;;;1.58;;
19151;SDS011;9708;53.114;9.388;2023-08-30T12:38:50;2.53;;;2.25;;
19151;SDS011;9708;53.114;9.388;2023-08-30T12:41:16;2.92;;;2.42;;
19151;SDS011;9708;53.114;9.388;2023-08-30T12:43:45;2.83;;;2.33;;
19151;SDS011;9708;53.114;9.388;2023-08-30T12:46:12;6.47;;;2.60;;
19151;SDS011;9708;53.114;9.388;2023-08-30T12:48:40;3.58;;;2.50;;
19151;SDS011;9708;53.114;9.388;2023-08-30T12:51:07;2.65;;;2.25;;
19151;SDS011;9708;53.114;9.388;2023-08-30T12:53:34;3.78;;;2.53;;
19151;SDS011;9708;53.114;9.388;2023-08-30T12:56:00;2.47;;;2.22;;
19151;SDS011;9708;53.114;9.388;2023-08-30T12:58:29;4.65;;;2.20;;
19151;SDS011;9708;53.114;9.388;2023-08-30T13:00:56;2.85;;;2.00;;
19151;SDS011;9708;53.114;9.388;2023-08-30T13:03:23;1.85;;;1.67;;
19151;SDS011;9708;53.114;9.388;2023-08-30T13:05:51;2.28;;;1.70;;
19151;SDS011;9708;53.114;9.388;2023-08-30T13:08:17;7.15;;;2.70;;
19151;SDS011;9708;53.114;9.388;2023-08-30T13:10:44;3.83;;;2.25;;
19151;SDS011;9708;53.114;9.388;2023-08-30T13:13:11;7.75;;;3.47;;
19151;SDS011;9708;53.114;9.388;2023-08-30T13:15:38;3.47;;;2.45;;
19151;SDS011;9708;53.114;9.388;2023-08-30T13:18:05;3.72;;;2.30;;
19151;SDS011;9708;53.114;9.388;2023-08-30T13:20:32;3.28;;;2.20;;
19151;SDS011;9708;53.114;9.388;2023-08-30T13:23:00;2.58;;;1.88;;
19151;SDS011;9708;53.114;9.388;2023-08-30T13:25:28;3.15;;;2.17;;
19151;SDS011;9708;53.114;9.388;2023-08-30T13:27:55;3.03;;;2.42;;
19151;SDS011;9708;53.114;9.388;2023-08-30T13:30:21;2.88;;;2.47;;
19151;SDS011;9708;53.114;9.388;2023-08-30T13:32:48;2.58;;;2.17;;
19151;SDS011;9708;53.114;9.388;2023-08-30T13:35:15;3.45;;;2.25;;
19151;SDS011;9708;53.114;9.388;2023-08-30T13:37:42;3.60;;;2.47;;
19151;SDS011;9708;53.114;9.388;2023-08-30T13:40:10;2.55;;;2.08;;
19151;SDS011;9708;53.114;9.388;2023-08-30T13:42:37;5.50;;;2.47;;
19151;SDS011;9708;53.114;9.388;2023-08-30T13:45:04;3.08;;;2.15;;
19151;SDS011;9708;53.114;9.388;2023-08-30T13:47:34;3.30;;;2.00;;
19151;SDS011;9708;53.114;9.388;2023-08-30T13:50:01;5.78;;;3.40;;
19151;SDS011;9708;53.114;9.388;2023-08-30T13:52:29;21.90;;;8.35;;
19151;SDS011;9708;53.114;9.388;2023-08-30T13:54:55;4.78;;;2.80;;
19151;SDS011;9708;53.114;9.388;2023-08-30T13:57:23;2.60;;;2.17;;
19151;SDS011;9708;53.114;9.388;2023-08-30T13:59:50;3.70;;;1.83;;
19151;SDS011;9708;53.114;9.388;2023-08-30T14:02:17;3.22;;;1.98;;
19151;SDS011;9708;53.114;9.388;2023-08-30T14:04:44;2.50;;;2.00;;
19151;SDS011;9708;53.114;9.388;2023-08-30T14:07:10;4.60;;;2.80;;
19151;SDS011;9708;53.114;9.388;2023-08-30T14:09:37;2.53;;;2.25;;
19151;SDS011;9708;53.114;9.388;2023-08-30T14:12:04;2.25;;;1.90;;
19151;SDS011;9708;53.114;9.388;2023-08-30T14:14:33;2.13;;;1.92;;
19151;SDS011;9708;53.114;9.388;2023-08-30T14:17:00;2.58;;;2.05;;
19151;SDS011;9708;53.114;9.388;2023-08-30T14:19:27;4.63;;;2.25;;
19151;SDS011;9708;53.114;9.388;2023-08-30T14:21:54;3.47;;;2.15;;
19151;SDS011;9708;53.114;9.388;2023-08-30T14:24:23;2.47;;;2.28;;
19151;SDS011;9708;53.114;9.388;2023-08-30T14:26:50;7.63;;;2.97;;
19151;SDS011;9708;53.114;9.388;2023-08-30T14:29:19;5.53;;;2.53;;
19151;SDS011;9708;53.114;9.388;2023-08-30T14:31:48;4.18;;;2.83;;
19151;SDS011;9708;53.114;9.388;2023-08-30T14:34:15;5.90;;;3.33;;
19151;SDS011;9708;53.114;9.388;2023-08-30T14:36:42;5.15;;;2.95;;
19151;SDS011;9708;53.114;9.388;2023-08-30T14:39:11;4.65;;;2.83;;
19151;SDS011;9708;53.114;9.388;2023-08-30T14:41:37;5.97;;;3.65;;
19151;SDS011;9708;53.114;9.388;2023-08-30T14:44:04;4.25;;;2.95;;
19151;SDS011;9708;53.114;9.388;2023-08-30T14:46:32;5.97;;;3.05;;
19151;SDS011;9708;53.114;9.388;2023-08-30T14:49:01;3.30;;;2.78;;
19151;SDS011;9708;53.114;9.388;2023-08-30T14:51:28;2.63;;;2.40;;
19151;SDS011;9708;53.114;9.388;2023-08-30T14:53:55;2.97;;;2.30;;
19151;SDS011;9708;53.114;9.388;2023-08-30T14:56:21;4.38;;;3.03;;
19151;SDS011;9708;53.114;9.388;2023-08-30T14:58:48;3.30;;;2.80;;
19151;SDS011;9708;53.114;9.388;2023-08-30T15:01:16;5.68;;;3.95;;
19151;SDS011;9708;53.114;9.388;2023-08-30T15:03:42;3.80;;;3.03;;
19151;SDS011;9708;53.114;9.388;2023-08-30T15:06:11;5.13;;;3.70;;